Kieffer, West Virginia
Current Conditions -  °F | °C
As of 3:55 AM on Thursday 23 Oct 2014 (Local Time) from KLWB Reporting Station
Overcast Overcast  
Wind Chill: 41°   Ceiling: 1800
Heat Index: 45°   Visibility: 10mi
Dew Point: 38°   Wind: 7mph
Humidity: 77%   Direction: 320°NW
Pressure: 30.11"   Gusts: NA
Location:  37.94°N, 80.61°W
Report Text: KLWB 230755Z AUTO 32006KT 10SM OVC018 07/04 A3011 RMK AO2 T00730035
Loading
Personal Weather Stations






























Interactive Weather Map
Tropical Storm Tracking
New forecast layout! Learn more

10-Day Weather Forecast

Advertisements
Track Severe Weather on mobile